Portada
METAR-TAF:

METAR-TAF

Aeroports :

Sialkot, Pakistan

latitud: 32-32N, longitud: 74-22E, altitud: 255 m

Observació

L'informe es va fer fa 50 minuts, a les 19:55 UTC
Vent calma
Temperatura 10°C
Humitat 100%
Pressió 1017 hPa
Visibilitat: 0030 m
boira

METAR: OPST 261955Z 00000KT 0030 FG VV/// 10/10 Q1017 NOSIG RH100

Hora: 01:45 (20:45 UTC)

Pronòstic

L'informe es va fer fa 5 hores i 0 minuts, a les 15:45 UTC
Pronòstic vàlid del 26 a les 18 UTC al 28 a les 00 UTC
Vent 4 kt del Nord-Oest
Visibilitat: 4000 m
Núvols disperses a una alçada de 10000 ft
fum
A partir de les UTC
Vent kt del Nord
Visibilitat: 0100 m
boira
Evolucionant progressivament
l' 27 a les 04 UTC al 27 a les 06 UTC
Vent 3 kt amb direcció variable
Visibilitat: 1200 m
Escasses núvols a una alçada de 10000 ft
boirina

TAF: OPST 261545Z 2618/2800 31004KT 4000 FU SCT100 TX17/2710Z TN06/2701Z FM 2618/2704 00000KT 0100 FG VV/// BECMG 2704/2706 VRB03KT 1200 BR FEW100

Observacions i pronòstics meteorològics de més de 4000 aeroports (METAR i TAF).

Les estacions disponibles són els punts grocs i vermells al mapa.

Posi el ratolí al punt desitjat per veure el nom de l'estació.

Feu clic per veure les observacions i els pronòstics meteorològics.

Per canviar el mapa: feu clic els botons verds amb una creu de color negre per apropar; al botó verd amb un guió per allunyar la imatge; o en les fletxes verdes per a mapes adjacents.


METAR-TAF: